Time;durP1;ratioP1;P1;durP2;ratioP2;P2;SDS_P1;SDS_P2;PMS_P1;PMS_P2;Temp;Humidity;BMP_temperature;BMP_pressure;BME280_temperature;BME280_humidity;BME280_pressure;Samples;Min_cycle;Max_cycle;Signal;HPM_P1;HPM_P2
2022/11/01 00:01:43;;;;;;;9.93;9.13;;;;;;;11.68;100.00;100176.47;5054322;28;20249;-77
2022/11/01 00:04:08;;;;;;;9.47;8.70;;;;;;;11.68;100.00;100184.25;5056769;28;20777;-75
2022/11/01 00:06:34;;;;;;;10.40;9.27;;;;;;;11.68;100.00;100181.66;5060200;28;20887;-75
2022/11/01 00:09:00;;;;;;;8.73;7.93;;;;;;;11.72;100.00;100182.50;5058814;28;20582;-74
2022/11/01 00:11:25;;;;;;;9.30;8.43;;;;;;;11.74;100.00;100175.53;5066306;28;20187;-74
2022/11/01 00:13:50;;;;;;;9.83;8.93;;;;;;;11.76;100.00;100189.31;5062110;28;20189;-75
2022/11/01 00:16:17;;;;;;;9.87;9.00;;;;;;;11.75;100.00;100182.44;5067956;28;20306;-74
2022/11/01 00:18:43;;;;;;;9.10;8.27;;;;;;;11.75;100.00;100200.56;5059603;28;20755;-77
2022/11/01 00:21:09;;;;;;;9.10;8.17;;;;;;;11.71;100.00;100204.97;5057395;28;20193;-75
2022/11/01 00:23:35;;;;;;;9.37;8.43;;;;;;;11.70;100.00;100205.84;5058106;28;20194;-76
2022/11/01 00:26:01;;;;;;;8.20;7.50;;;;;;;11.72;100.00;100198.06;5057958;28;20188;-76
2022/11/01 00:28:27;;;;;;;9.33;7.77;;;;;;;11.74;100.00;100199.72;5061728;28;20278;-76
2022/11/01 00:30:54;;;;;;;8.53;7.73;;;;;;;11.79;100.00;100206.59;5058806;28;20190;-76
2022/11/01 00:33:20;;;;;;;8.67;7.87;;;;;;;11.83;100.00;100205.66;5065104;28;20277;-77
2022/11/01 00:35:47;;;;;;;7.97;7.27;;;;;;;11.85;100.00;100222.91;5064919;28;20294;-74
2022/11/01 00:38:13;;;;;;;8.43;7.67;;;;;;;11.93;100.00;100215.00;5065331;28;20204;-77
2022/11/01 00:40:38;;;;;;;9.23;8.43;;;;;;;11.95;100.00;100221.00;5060970;28;20184;-76
2022/11/01 00:43:04;;;;;;;9.20;8.30;;;;;;;11.99;100.00;100211.50;5060686;28;20188;-77
2022/11/01 00:45:32;;;;;;;8.80;8.00;;;;;;;12.01;100.00;100218.34;5063834;28;20237;-75
2022/11/01 00:47:58;;;;;;;8.67;7.87;;;;;;;12.04;100.00;100217.44;5067292;28;20262;-76
2022/11/01 00:50:24;;;;;;;9.30;8.40;;;;;;;12.08;100.00;100205.31;5068100;28;20525;-76
2022/11/01 00:52:49;;;;;;;8.97;8.17;;;;;;;12.08;100.00;100194.94;5060110;28;20269;-77
2022/11/01 00:55:15;;;;;;;8.83;8.03;;;;;;;12.06;100.00;100202.72;5061259;28;20331;-77
2022/11/01 00:57:42;;;;;;;8.87;8.07;;;;;;;12.05;100.00;100203.59;5057586;28;20297;-74
2022/11/01 01:00:08;;;;;;;8.87;7.97;;;;;;;12.03;100.00;100195.84;5066512;28;20219;-75
2022/11/01 01:02:34;;;;;;;8.60;7.80;;;;;;;12.04;100.00;100196.69;5057149;28;20270;-75
2022/11/01 01:04:59;;;;;;;9.23;8.50;;;;;;;12.03;100.00;100197.56;5061023;28;20349;-77
2022/11/01 01:07:24;;;;;;;9.53;8.67;;;;;;;12.05;100.00;100195.81;5060406;28;20245;-77
2022/11/01 01:09:50;;;;;;;9.10;8.30;;;;;;;12.04;100.00;100184.59;5059001;28;20593;-74
2022/11/01 01:12:15;;;;;;;8.57;7.80;;;;;;;12.07;100.00;100175.91;5058420;28;20208;-74
2022/11/01 01:14:40;;;;;;;9.13;8.33;;;;;;;12.08;100.00;100172.44;5056793;28;20585;-73
2022/11/01 01:17:06;;;;;;;9.37;8.57;;;;;;;12.11;100.00;100169.78;5065016;28;20210;-76
2022/11/01 01:19:31;;;;;;;9.20;8.40;;;;;;;12.12;100.00;100168.91;5060379;28;20209;-76
2022/11/01 01:21:56;;;;;;;9.47;7.90;;;;;;;12.14;100.00;100169.75;5058917;28;20237;-74
2022/11/01 01:24:22;;;;;;;9.27;8.37;;;;;;;12.15;100.00;100165.41;5057360;28;20194;-76
2022/11/01 01:26:47;;;;;;;8.47;7.80;;;;;;;12.15;100.00;100168.84;5057850;28;20332;-74
2022/11/01 01:29:15;;;;;;;9.83;9.03;;;;;;;12.15;100.00;100170.59;5060910;28;20296;-74
2022/11/01 01:31:40;;;;;;;8.80;8.00;;;;;;;12.14;100.00;100171.47;5057977;28;20184;-75
2022/11/01 01:34:05;;;;;;;8.87;8.00;;;;;;;12.14;100.00;100167.16;5065241;28;20298;-75
2022/11/01 01:36:31;;;;;;;9.07;8.23;;;;;;;12.14;100.00;100169.75;5056170;28;20198;-76
2022/11/01 01:38:56;;;;;;;8.57;7.87;;;;;;;12.15;100.00;100171.44;5055837;28;20293;-76
2022/11/01 01:44:42;;;;;;;8.60;7.77;;;;;;;12.21;100.00;100188.66;5059479;28;20232;-73
2022/11/01 01:47:11;;;;;;;8.67;7.27;;;;;;;12.25;100.00;100174.72;5061954;28;20228;-77
2022/11/01 01:49:37;;;;;;;8.53;7.57;;;;;;;12.28;100.00;100156.50;5059043;28;20205;-77
2022/11/01 01:52:03;;;;;;;8.43;7.70;;;;;;;12.31;100.00;100164.25;5065892;28;20275;-74
2022/11/01 01:54:30;;;;;;;7.93;7.33;;;;;;;12.33;100.00;100161.59;5059714;28;20269;-75
2022/11/01 01:56:55;;;;;;;8.10;7.30;;;;;;;12.34;100.00;100156.41;5066299;28;20204;-73
2022/11/01 01:59:21;;;;;;;7.57;6.97;;;;;;;12.37;100.00;100154.63;5089451;28;20201;-73
2022/11/01 02:01:46;;;;;;;7.03;6.47;;;;;;;12.41;100.00;100158.88;5077457;28;20244;-73
2022/11/01 02:04:53;;;;;;;7.80;7.10;;;;;;;12.43;100.00;100159.69;5080496;28;20192;-74
2022/11/01 02:07:19;;;;;;;7.87;7.17;;;;;;;12.46;100.00;100189.06;5087789;28;20196;-73
2022/11/01 02:09:45;;;;;;;7.70;6.90;;;;;;;12.49;100.00;100193.34;5084214;28;20212;-75
2022/11/01 02:12:12;;;;;;;7.57;6.87;;;;;;;12.54;100.00;100193.25;5083661;28;20195;-73
2022/11/01 02:14:41;;;;;;;8.03;7.33;;;;;;;12.57;100.00;100198.38;5087304;28;20244;-73
2022/11/01 02:17:14;;;;;;;7.47;6.87;;;;;;;12.60;100.00;100195.75;5078264;28;20235;-73
2022/11/01 02:20:19;;;;;;;8.30;7.40;;;;;;;12.62;100.00;100191.38;5093862;28;20206;-74
2022/11/01 02:23:44;;;;;;;7.33;6.50;;;;;;;12.61;100.00;100194.84;5069855;28;21158;-75
2022/11/01 02:26:12;;;;;;;7.10;6.50;;;;;;;12.63;100.00;100193.94;4987241;28;20186;-75
2022/11/01 02:29:15;;;;;;;6.90;6.23;;;;;;;12.66;100.00;100200.81;5064675;28;20934;-75
2022/11/01 02:31:59;;;;;;;7.83;6.63;;;;;;;12.69;100.00;100210.28;5061271;28;20185;-75
2022/11/01 02:34:38;;;;;;;7.20;6.47;;;;;;;12.68;100.00;100196.44;5059939;28;20187;-73
2022/11/01 02:37:18;;;;;;;6.67;6.07;;;;;;;12.68;100.00;100195.59;5062014;28;20254;-73
2022/11/01 02:39:50;;;;;;;6.30;5.70;;;;;;;12.68;100.00;100191.25;5063335;28;20205;-75
2022/11/01 02:42:22;;;;;;;6.40;5.83;;;;;;;12.70;100.00;100204.22;5053149;28;20267;-72
2022/11/01 02:44:54;;;;;;;6.43;5.70;;;;;;;12.70;100.00;100205.06;5066124;28;20209;-75
2022/11/01 02:47:19;;;;;;;7.30;6.40;;;;;;;12.70;100.00;100197.28;5064447;28;20181;-75
2022/11/01 02:49:49;;;;;;;6.10;5.50;;;;;;;12.71;100.00;100198.09;5058373;28;20226;-73
2022/11/01 02:52:19;;;;;;;7.80;6.90;;;;;;;12.71;100.00;100196.38;5060392;28;20590;-76
2022/11/01 02:54:50;;;;;;;7.10;6.40;;;;;;;12.72;100.00;100199.81;5061770;28;20189;-78
2022/11/01 02:57:15;;;;;;;7.33;6.73;;;;;;;12.72;100.00;100198.09;5057079;28;20395;-76
2022/11/01 02:59:47;;;;;;;7.27;6.57;;;;;;;12.74;100.00;100206.72;5062961;28;20766;-73
2022/11/01 03:02:38;;;;;;;6.73;6.13;;;;;;;12.74;100.00;100206.72;5067804;28;20199;-76
2022/11/01 03:05:32;;;;;;;7.67;6.87;;;;;;;12.74;100.00;100206.72;5061800;28;20279;-75
2022/11/01 03:08:03;;;;;;;7.13;6.53;;;;;;;12.71;100.00;100206.78;5031794;28;20210;-76
2022/11/01 03:11:01;;;;;;;7.93;7.20;;;;;;;12.69;100.00;100210.28;5063986;28;20606;-75
2022/11/01 03:14:00;;;;;;;7.50;6.80;;;;;;;12.65;100.00;100218.13;5037877;28;20230;-77
2022/11/01 03:16:42;;;;;;;7.97;6.53;;;;;;;12.64;100.00;100224.22;5054785;28;20246;-75
2022/11/01 03:19:46;;;;;;;6.70;6.13;;;;;;;12.62;100.00;100218.19;5061274;28;20213;-76
2022/11/01 03:22:19;;;;;;;8.87;6.80;;;;;;;12.59;100.00;100223.44;4979093;28;20312;-75
2022/11/01 03:24:51;;;;;;;8.17;6.93;;;;;;;12.58;100.00;100233.84;5062965;28;20713;-77
2022/11/01 03:27:31;;;;;;;7.33;6.70;;;;;;;12.57;100.00;100230.38;5062214;28;20188;-74
2022/11/01 03:30:14;;;;;;;7.50;6.90;;;;;;;12.59;100.00;100235.56;5063807;28;20653;-76
2022/11/01 03:32:45;;;;;;;6.63;6.03;;;;;;;12.59;100.00;100245.94;5060736;28;20238;-76
2022/11/01 03:35:18;;;;;;;6.23;5.70;;;;;;;12.59;100.00;100240.75;5068041;28;20188;-77
2022/11/01 03:37:45;;;;;;;6.60;6.00;;;;;;;12.61;100.00;100259.75;5065588;28;21056;-77
2022/11/01 03:40:15;;;;;;;6.70;6.10;;;;;;;12.63;100.00;100257.97;5064695;28;20206;-75
2022/11/01 03:42:46;;;;;;;6.60;6.00;;;;;;;12.64;100.00;100264.88;5061228;28;20192;-76
2022/11/01 03:45:15;;;;;;;6.90;6.30;;;;;;;12.65;100.00;100272.66;5077713;28;20186;-75
2022/11/01 03:47:41;;;;;;;7.23;6.63;;;;;;;12.67;100.00;100275.22;5063912;28;20194;-75
2022/11/01 03:50:17;;;;;;;7.00;6.37;;;;;;;12.69;100.00;100286.44;5060930;28;20911;-77
2022/11/01 03:52:43;;;;;;;7.67;6.97;;;;;;;12.69;100.00;100290.78;5063100;28;20211;-76
2022/11/01 03:55:18;;;;;;;6.73;6.13;;;;;;;12.67;100.00;100295.97;5058571;28;20679;-77
2022/11/01 03:58:03;;;;;;;7.53;6.93;;;;;;;12.68;100.00;100291.66;5061461;28;20208;-74
2022/11/01 04:00:31;;;;;;;8.00;6.77;;;;;;;12.67;100.00;100295.97;5056463;28;20627;-75
2022/11/01 04:02:58;;;;;;;7.93;7.13;;;;;;;12.69;100.00;100319.34;5052570;28;20593;-76
2022/11/01 04:05:25;;;;;;;7.60;6.80;;;;;;;12.70;100.00;100336.63;5055874;28;20195;-76
2022/11/01 04:07:51;;;;;;;8.20;7.40;;;;;;;12.73;100.00;100320.97;5056555;28;20680;-76
2022/11/01 04:10:18;;;;;;;9.90;8.97;;;;;;;12.77;100.00;100322.66;5060870;28;20206;-76
2022/11/01 04:12:45;;;;;;;10.00;9.10;;;;;;;12.79;100.00;100320.88;5062849;28;20197;-73
2022/11/01 04:21:09;;;;;;;8.80;8.00;;;;;;;12.77;100.00;100320.94;5058847;28;20731;-74
2022/11/01 04:23:35;;;;;;;9.37;8.53;;;;;;;12.77;100.00;100310.53;5059405;28;20206;-73
2022/11/01 04:26:01;;;;;;;9.27;8.47;;;;;;;12.77;100.00;100307.94;5055815;28;20179;-74
2022/11/01 04:28:26;;;;;;;9.77;8.30;;;;;;;12.76;100.00;100301.03;5067884;28;20737;-77
2022/11/01 04:30:53;;;;;;;9.60;8.63;;;;;;;12.77;100.00;100296.69;5064503;28;20214;-75
2022/11/01 04:33:18;;;;;;;9.43;8.47;;;;;;;12.78;100.00;100309.63;5060582;28;20184;-77
2022/11/01 04:35:44;;;;;;;9.13;8.33;;;;;;;12.78;100.00;100314.81;5062622;28;20196;-74
2022/11/01 04:38:11;;;;;;;8.87;7.97;;;;;;;12.80;100.00;100318.25;5064922;28;20198;-73
2022/11/01 04:40:36;;;;;;;8.63;7.77;;;;;;;12.81;100.00;100322.56;5059894;28;20186;-76
2022/11/01 04:43:02;;;;;;;9.07;8.20;;;;;;;12.83;100.00;100335.53;5056021;28;20192;-73
2022/11/01 04:45:28;;;;;;;8.87;8.07;;;;;;;12.85;100.00;100327.72;5065868;28;20667;-76
2022/11/01 04:48:19;;;;;;;9.00;7.60;;;;;;;12.88;100.00;100327.66;5061176;28;20189;-77
2022/11/01 04:50:44;;;;;;;9.07;8.27;;;;;;;12.89;100.00;100326.78;5063139;28;20198;-78
2022/11/01 04:53:10;;;;;;;9.67;7.57;;;;;;;12.89;100.00;100321.59;5062368;28;20190;-75
2022/11/01 04:55:36;;;;;;;7.67;7.07;;;;;;;12.90;100.00;100318.09;5063566;28;20293;-76
2022/11/01 04:58:03;;;;;;;8.57;7.67;;;;;;;12.91;100.00;100314.63;5062540;28;20188;-77
2022/11/01 05:00:28;;;;;;;7.40;6.80;;;;;;;12.93;100.00;100324.09;5060850;28;20202;-74
2022/11/01 05:03:02;;;;;;;7.77;7.17;;;;;;;12.95;100.00;100316.25;5053939;28;20209;-77
2022/11/01 05:05:27;;;;;;;6.70;5.97;;;;;;;12.96;100.00;100302.38;5053835;28;21213;-77
2022/11/01 05:08:01;;;;;;;7.63;6.33;;;;;;;12.99;100.00;100311.88;5053790;28;20184;-76
2022/11/01 05:10:27;;;;;;;6.60;5.80;;;;;;;12.99;100.00;100327.47;5058322;28;20219;-75
2022/11/01 05:12:53;;;;;;;6.30;5.70;;;;;;;12.99;100.00;100325.72;5057291;28;20698;-75
2022/11/01 05:15:18;;;;;;;6.00;5.47;;;;;;;13.01;100.00;100312.72;5059848;28;20217;-77
2022/11/01 05:17:43;;;;;;;5.83;5.37;;;;;;;13.02;100.00;100299.69;5053224;28;20209;-77
2022/11/01 05:20:09;;;;;;;5.53;5.03;;;;;;;13.02;100.00;100310.09;5060120;28;20266;-76
2022/11/01 05:22:35;;;;;;;5.57;5.07;;;;;;;13.01;100.00;100308.38;5059201;28;20577;-77
2022/11/01 05:25:00;;;;;;;4.83;4.43;;;;;;;13.03;100.00;100316.13;5057184;28;20189;-76
2022/11/01 05:27:25;;;;;;;4.23;3.83;;;;;;;13.05;100.00;100324.75;5057365;28;20268;-77
2022/11/01 05:29:51;;;;;;;4.03;3.63;;;;;;;13.06;100.00;100324.75;5057880;28;20312;-77
2022/11/01 05:32:16;;;;;;;3.80;3.50;;;;;;;13.05;100.00;100328.22;5057215;28;20220;-75
2022/11/01 05:34:42;;;;;;;7.40;6.90;;;;;;;13.05;100.00;100322.16;5057424;28;20204;-76
2022/11/01 05:37:07;;;;;;;16.33;15.23;;;;;;;13.08;100.00;100327.28;5059449;28;20653;-74
2022/11/01 05:39:32;;;;;;;58.90;54.80;;;;;;;13.07;100.00;100323.84;5058185;28;20251;-77
2022/11/01 05:41:58;;;;;;;76.40;71.07;;;;;;;13.10;100.00;100325.53;5059129;28;22246;-75
2022/11/01 05:44:23;;;;;;;73.80;68.40;;;;;;;13.11;100.00;100327.25;5058595;28;20194;-77
2022/11/01 05:46:48;;;;;;;46.20;42.90;;;;;;;13.11;100.00;100338.47;5064903;28;20214;-75
2022/11/01 05:49:14;;;;;;;32.97;30.70;;;;;;;13.13;100.00;100346.25;5064026;28;20212;-76
2022/11/01 05:51:39;;;;;;;23.63;21.93;;;;;;;13.15;100.00;100346.22;5059476;28;20226;-75
2022/11/01 05:54:04;;;;;;;15.87;14.77;;;;;;;13.15;100.00;100348.81;5060345;28;20285;-75
2022/11/01 05:56:30;;;;;;;11.63;10.73;;;;;;;13.16;100.00;100351.38;5059143;28;20224;-74
2022/11/01 05:58:55;;;;;;;7.90;7.40;;;;;;;13.17;100.00;100345.28;5056282;28;20215;-75
2022/11/01 06:01:20;;;;;;;4.90;4.47;;;;;;;13.20;100.00;100352.19;5057336;28;20199;-76
2022/11/01 06:03:49;;;;;;;4.80;2.43;;;;;;;13.24;100.00;100349.50;5057043;28;20211;-76
2022/11/01 06:06:14;;;;;;;4.00;3.70;;;;;;;13.26;100.00;100336.47;5057348;28;20213;-77
2022/11/01 06:08:40;;;;;;;4.30;3.90;;;;;;;13.28;100.00;100347.69;5059218;28;20225;-77
2022/11/01 06:11:05;;;;;;;3.17;2.53;;;;;;;13.33;100.00;100347.59;5068143;28;20186;-74
2022/11/01 06:13:31;;;;;;;5.40;5.00;;;;;;;13.36;100.00;100350.16;5060561;28;20977;-77
2022/11/01 06:16:01;;;;;;;5.00;4.50;;;;;;;13.39;100.00;100342.28;5057716;28;20267;-76
2022/11/01 06:18:27;;;;;;;6.70;6.23;;;;;;;13.41;100.00;100349.19;5064122;28;20267;-76
2022/11/01 06:20:53;;;;;;;4.67;4.27;;;;;;;13.45;100.00;100346.53;5058927;28;20189;-76
2022/11/01 06:23:19;;;;;;;3.70;3.40;;;;;;;13.48;100.00;100349.09;5065747;28;20192;-76
2022/11/01 06:25:44;;;;;;;3.80;3.40;;;;;;;13.49;100.00;100359.44;5057936;28;20210;-76
2022/11/01 06:28:10;;;;;;;3.70;3.00;;;;;;;13.52;100.00;100358.56;5060008;28;20185;-76
2022/11/01 06:30:37;;;;;;;3.80;3.40;;;;;;;13.53;100.00;100358.50;5068548;28;20234;-76
2022/11/01 06:33:05;;;;;;;3.03;2.73;;;;;;;13.56;100.00;100376.66;5059942;28;20663;-75
2022/11/01 06:35:31;;;;;;;3.23;2.93;;;;;;;13.61;100.00;100375.72;5054535;28;20197;-76
2022/11/01 06:38:05;;;;;;;3.50;2.40;;;;;;;13.66;100.00;100385.13;5063842;28;20181;-74
2022/11/01 06:40:31;;;;;;;2.50;2.30;;;;;;;13.68;100.00;100405.88;5055814;28;20178;-76
2022/11/01 06:43:01;;;;;;;2.77;2.57;;;;;;;13.72;100.00;100413.59;5056289;28;20229;-75
2022/11/01 06:45:27;;;;;;;3.60;3.13;;;;;;;13.78;100.00;100420.41;5062432;28;20757;-77
2022/11/01 06:47:52;;;;;;;2.70;2.50;;;;;;;13.80;100.00;100415.19;5059075;28;20235;-75
2022/11/01 06:50:18;;;;;;;6.07;5.57;;;;;;;13.83;100.00;100429.00;5058654;28;20947;-77
2022/11/01 06:52:43;;;;;;;5.97;5.40;;;;;;;13.87;100.00;100425.44;5054455;28;20624;-76
2022/11/01 06:55:08;;;;;;;6.33;5.83;;;;;;;13.90;100.00;100428.88;5056977;28;20193;-74
2022/11/01 06:57:34;;;;;;;4.77;4.27;;;;;;;13.91;100.00;100436.66;5058793;28;20210;-75
2022/11/01 06:59:59;;;;;;;3.07;2.73;;;;;;;13.92;100.00;100443.56;5064494;28;20308;-74
2022/11/01 07:02:24;;;;;;;2.40;2.20;;;;;;;13.93;100.00;100440.06;5066277;28;20300;-77
2022/11/01 07:04:50;;;;;;;1.50;1.40;;;;;;;13.93;100.00;100444.41;5061952;28;20183;-74
2022/11/01 07:07:15;;;;;;;2.27;1.43;;;;;;;13.93;100.00;100453.09;5066222;28;20174;-75
2022/11/01 07:09:41;;;;;;;1.57;1.47;;;;;;;13.94;100.00;100457.41;5070840;28;20262;-75
2022/11/01 07:12:06;;;;;;;1.93;1.57;;;;;;;13.96;100.00;100466.03;5065397;28;20186;-76
2022/11/01 07:14:31;;;;;;;2.10;1.90;;;;;;;13.99;100.00;100467.72;5068259;28;20185;-76
2022/11/01 07:16:57;;;;;;;2.47;2.10;;;;;;;14.01;100.00;100469.38;5063869;28;20208;-75
2022/11/01 07:19:22;;;;;;;6.70;6.20;;;;;;;14.05;100.00;100471.94;5065429;28;21544;-74
2022/11/01 07:21:48;;;;;;;4.03;3.67;;;;;;;14.11;100.00;100482.22;5067251;28;20186;-75
2022/11/01 07:24:14;;;;;;;2.57;2.00;;;;;;;14.19;100.00;100482.91;5061198;28;20188;-77
2022/11/01 07:26:39;;;;;;;1.70;1.60;;;;;;;14.25;100.00;100482.78;5064507;28;20227;-75
2022/11/01 07:29:04;;;;;;;1.40;1.30;;;;;;;14.29;100.00;100488.78;5063650;28;20666;-74
2022/11/01 07:31:32;;;;;;;2.27;1.30;;;;;;;14.37;100.00;100494.66;5064560;28;20274;-77
2022/11/01 07:33:57;;;;;;;2.27;1.13;;;;;;;14.44;100.00;100493.66;5069398;28;20230;-74
2022/11/01 07:36:23;;;;;;;5.50;1.30;;;;;;;14.50;100.00;100484.00;5064340;28;20293;-74
2022/11/01 07:38:48;;;;;;;1.40;1.30;;;;;;;14.60;100.00;100488.13;5063102;28;20201;-76
2022/11/01 07:41:14;;;;;;;1.93;1.77;;;;;;;14.65;100.00;100481.06;5061286;28;20181;-74
2022/11/01 07:43:39;;;;;;;1.87;1.30;;;;;;;14.73;100.00;100486.13;5059533;28;20272;-74
2022/11/01 07:46:06;;;;;;;1.90;1.33;;;;;;;14.77;100.00;100492.97;5056729;28;20182;-76
2022/11/01 07:48:32;;;;;;;2.43;1.27;;;;;;;14.83;100.00;100489.34;5049484;28;20231;-74
2022/11/01 07:50:58;;;;;;;3.03;1.63;;;;;;;14.87;100.00;100496.22;5051306;28;20299;-76
2022/11/01 07:53:24;;;;;;;2.93;2.13;;;;;;;14.92;100.00;100502.19;5055318;28;20698;-76
2022/11/01 07:55:50;;;;;;;3.37;2.17;;;;;;;14.96;100.00;100500.34;5056184;28;20272;-75
2022/11/01 07:58:16;;;;;;;2.00;1.40;;;;;;;15.02;100.00;100508.03;5062968;28;20190;-76
2022/11/01 08:00:43;;;;;;;1.47;1.20;;;;;;;15.07;100.00;100516.59;5065205;28;20243;-76
2022/11/01 08:03:16;;;;;;;1.50;1.10;;;;;;;15.12;100.00;100513.88;5066636;28;20204;-74
2022/11/01 08:05:42;;;;;;;2.00;0.90;;;;;;;15.20;100.00;100511.94;5058400;28;20182;-76
2022/11/01 08:08:10;;;;;;;1.27;1.13;;;;;;;15.26;100.00;100516.16;5054997;28;20208;-76
2022/11/01 08:10:37;;;;;;;1.60;1.00;;;;;;;15.31;100.00;100524.72;5061117;28;20194;-76
2022/11/01 08:13:03;;;;;;;1.93;1.10;;;;;;;15.35;100.00;100527.19;5059939;28;20661;-75
2022/11/01 08:15:28;;;;;;;1.83;1.30;;;;;;;15.41;100.00;100523.59;5049874;28;20269;-76
2022/11/01 08:17:56;;;;;;;1.87;1.20;;;;;;;15.46;100.00;100523.47;5053131;28;20755;-76
2022/11/01 08:20:21;;;;;;;1.90;1.03;;;;;;;15.51;100.00;100527.66;5037048;28;20189;-77
2022/11/01 08:22:47;;;;;;;1.70;1.50;;;;;;;15.59;100.00;100524.00;5065708;28;20195;-76
2022/11/01 08:25:12;;;;;;;1.57;1.20;;;;;;;15.66;100.00;100533.38;5050143;28;20666;-75
2022/11/01 08:27:38;;;;;;;1.83;1.37;;;;;;;15.72;100.00;100535.84;5050392;28;20201;-76
2022/11/01 08:30:04;;;;;;;2.60;1.30;;;;;;;15.77;100.00;100528.75;5056832;28;20221;-74
2022/11/01 08:32:29;;;;;;;1.70;1.33;;;;;;;15.85;100.00;100532.03;5054069;28;20212;-74
2022/11/01 08:34:54;;;;;;;1.40;1.30;;;;;;;15.91;100.00;100538.00;5049211;28;20186;-74
2022/11/01 08:37:20;;;;;;;1.43;1.13;;;;;;;15.99;100.00;100536.88;5052339;28;20640;-75
2022/11/01 08:39:45;;;;;;;2.47;1.33;;;;;;;16.07;100.00;100536.69;5046906;28;20357;-77
2022/11/01 08:42:11;;;;;;;1.93;1.07;;;;;;;16.14;100.00;100534.75;5054467;28;20187;-77
2022/11/01 08:44:37;;;;;;;1.50;1.37;;;;;;;16.21;100.00;100538.03;5047908;28;20740;-75
2022/11/01 08:47:02;;;;;;;1.53;1.30;;;;;;;16.26;100.00;100544.00;5047754;28;20722;-75
2022/11/01 08:49:28;;;;;;;1.40;1.10;;;;;;;16.35;100.00;100546.34;5045667;28;20227;-77
2022/11/01 08:51:54;;;;;;;1.60;1.40;;;;;;;16.42;100.00;100539.16;5053668;28;20701;-77
2022/11/01 08:54:19;;;;;;;1.30;1.00;;;;;;;16.48;100.00;100543.34;5048588;28;20211;-76
2022/11/01 08:56:44;;;;;;;1.20;1.10;;;;;;;16.49;100.00;100542.47;5056036;28;20224;-74
2022/11/01 08:59:10;;;;;;;1.17;1.07;;;;;;;16.57;100.00;100548.28;5053119;28;20243;-75
2022/11/01 09:01:37;;;;;;;1.40;1.20;;;;;;;16.59;100.00;100544.75;5057554;28;20276;-77
2022/11/01 09:04:02;;;;;;;1.80;1.07;;;;;;;16.63;100.00;100550.75;5052954;28;20195;-77
2022/11/01 09:06:28;;;;;;;1.37;1.03;;;;;;;16.69;100.00;100558.41;5051154;28;20223;-77
2022/11/01 09:08:54;;;;;;;1.83;1.20;;;;;;;16.75;100.00;100549.53;5048895;28;20215;-76
2022/11/01 09:11:21;;;;;;;0.90;0.90;;;;;;;16.79;100.00;100563.34;5050604;28;20582;-76
2022/11/01 09:13:47;;;;;;;1.10;0.87;;;;;;;16.86;100.00;100557.03;5052208;28;20208;-75
2022/11/01 09:16:13;;;;;;;1.50;0.97;;;;;;;16.93;100.00;100561.16;5058095;28;20230;-76
2022/11/01 09:18:38;;;;;;;2.33;1.10;;;;;;;17.08;100.00;100577.31;5055499;28;20212;-77
2022/11/01 09:21:05;;;;;;;1.27;1.00;;;;;;;17.22;100.00;100567.25;5056101;28;20200;-75
2022/11/01 09:23:32;;;;;;;1.77;1.10;;;;;;;17.34;100.00;100579.09;5049820;28;20983;-77
2022/11/01 09:26:07;;;;;;;3.07;1.90;;;;;;;17.50;100.00;100574.19;5057481;28;20655;-76
2022/11/01 09:28:32;;;;;;;1.90;1.70;;;;;;;17.60;100.00;100577.34;5051556;28;20227;-74
2022/11/01 09:31:06;;;;;;;1.50;1.30;;;;;;;17.74;100.00;100588.22;5059461;28;20200;-76
2022/11/01 09:33:32;;;;;;;1.73;1.37;;;;;;;17.81;100.00;100581.88;5049971;28;20193;-74
2022/11/01 09:35:58;;;;;;;2.27;1.27;;;;;;;17.87;100.00;100579.94;5050712;28;20245;-76
2022/11/01 09:38:24;;;;;;;2.03;1.27;;;;;;;17.88;100.00;100573.78;5056371;28;20859;-77
2022/11/01 09:41:04;;;;;;;1.30;1.10;;;;;;;17.91;100.00;100574.56;5055706;28;20201;-75
2022/11/01 09:43:33;;;;;;;1.90;1.17;;;;;;;17.95;100.00;100581.38;5055409;28;20626;-76
2022/11/01 09:46:01;;;;;;;1.20;1.00;;;;;;;18.01;100.00;100572.47;5053620;28;20186;-75
2022/11/01 09:48:28;;;;;;;1.50;1.20;;;;;;;18.02;100.00;100576.81;5050988;28;20293;-77
2022/11/01 09:50:54;;;;;;;1.67;1.13;;;;;;;18.02;100.00;100584.66;5043609;28;20193;-74
2022/11/01 09:53:22;;;;;;;1.90;1.10;;;;;;;18.03;100.00;100596.84;5050252;28;20621;-76
2022/11/01 09:56:14;;;;;;;1.27;1.10;;;;;;;17.92;100.00;100609.44;5051783;28;20205;-77
2022/11/01 09:59:03;;;;;;;1.50;1.20;;;;;;;17.68;100.00;100604.16;5059894;28;20213;-75
2022/11/01 10:01:51;;;;;;;2.80;1.23;;;;;;;17.41;100.00;100626.84;5055265;28;20675;-78
2022/11/01 10:04:25;;;;;;;0.90;0.83;;;;;;;17.26;100.00;100625.53;5051208;28;20186;-77
2022/11/01 10:07:02;;;;;;;1.70;1.20;;;;;;;17.20;100.00;100632.69;5053357;28;20222;-77
2022/11/01 10:09:58;;;;;;;1.80;0.97;;;;;;;17.19;100.00;100628.38;5058596;28;20296;-76
2022/11/01 10:12:44;;;;;;;3.23;1.03;;;;;;;17.12;100.00;100639.91;5059176;28;20190;-77
2022/11/01 10:15:35;;;;;;;3.10;1.50;;;;;;;17.04;100.00;100639.31;5057468;28;20209;-78
2022/11/01 10:18:15;;;;;;;1.87;0.90;;;;;;;16.95;100.00;100644.78;5053901;28;20217;-76
2022/11/01 10:20:41;;;;;;;2.30;1.00;;;;;;;16.92;100.00;100649.19;5059516;28;20195;-74
2022/11/01 10:23:10;;;;;;;2.00;1.10;;;;;;;16.92;100.00;100649.19;5051662;28;20198;-76
2022/11/01 10:25:40;;;;;;;3.10;1.20;;;;;;;16.92;100.00;100657.03;5052114;28;20192;-74
2022/11/01 10:28:25;;;;;;;1.90;0.93;;;;;;;16.95;100.00;100653.50;5052489;28;20199;-77
2022/11/01 10:31:04;;;;;;;2.57;1.27;;;;;;;16.93;100.00;100647.44;5052483;28;20201;-77
2022/11/01 10:33:34;;;;;;;2.03;1.10;;;;;;;16.90;100.00;100658.84;5054510;28;20192;-77
2022/11/01 10:36:03;;;;;;;1.67;1.00;;;;;;;16.90;100.00;100658.84;5050877;28;20186;-76
2022/11/01 10:38:36;;;;;;;2.57;1.20;;;;;;;16.88;100.00;100665.88;5053168;28;20222;-75
2022/11/01 10:41:44;;;;;;;1.50;1.00;;;;;;;16.87;100.00;100666.75;5052974;28;20194;-77
2022/11/01 10:44:34;;;;;;;2.20;0.97;;;;;;;16.79;100.00;100679.19;5052664;28;20207;-76
2022/11/01 10:47:05;;;;;;;2.83;0.93;;;;;;;16.71;100.00;100668.94;5043086;28;20257;-74
2022/11/01 10:49:36;;;;;;;1.53;0.87;;;;;;;16.63;100.00;100668.31;5054081;28;20214;-77
2022/11/01 10:52:06;;;;;;;1.43;0.90;;;;;;;16.51;100.00;100663.44;5051102;28;20726;-77
2022/11/01 10:54:36;;;;;;;1.53;0.90;;;;;;;16.35;100.00;100668.22;5051732;28;20215;-77
2022/11/01 10:57:08;;;;;;;5.07;1.20;;;;;;;16.19;100.00;100670.38;5053776;28;20237;-74
2022/11/01 10:59:41;;;;;;;1.73;0.83;;;;;;;16.11;100.00;100670.59;5051880;28;20250;-75
2022/11/01 11:02:34;;;;;;;1.40;0.67;;;;;;;16.22;100.00;100672.94;5058044;28;20248;-76
2022/11/01 11:05:00;;;;;;;2.30;1.10;;;;;;;16.40;100.00;100671.56;5054560;28;20277;-75
2022/11/01 11:07:29;;;;;;;1.20;0.83;;;;;;;16.61;100.00;100671.00;5054568;28;20197;-74
2022/11/01 11:09:55;;;;;;;3.10;1.30;;;;;;;16.68;100.00;100669.06;5054176;28;20212;-74
2022/11/01 11:12:23;;;;;;;1.77;0.93;;;;;;;16.76;100.00;100676.69;5050961;28;20559;-74
2022/11/01 11:14:54;;;;;;;3.27;0.90;;;;;;;16.76;100.00;100672.28;5052363;28;20189;-77
2022/11/01 11:17:24;;;;;;;2.73;1.00;;;;;;;16.76;100.00;100674.91;5053438;28;20228;-77
2022/11/01 11:19:52;;;;;;;2.43;1.03;;;;;;;16.75;100.00;100667.97;5047661;28;20216;-77
2022/11/01 11:22:21;;;;;;;2.47;1.00;;;;;;;16.83;100.00;100670.34;5049092;28;20190;-73
2022/11/01 11:24:47;;;;;;;1.87;1.10;;;;;;;16.95;100.00;100665.69;5052925;28;20193;-76
2022/11/01 11:27:15;;;;;;;2.63;1.33;;;;;;;16.98;100.00;100671.72;5048936;28;20246;-75
2022/11/01 11:29:48;;;;;;;3.63;1.10;;;;;;;17.03;100.00;100668.97;5049463;28;20227;-77
2022/11/01 11:32:21;;;;;;;1.83;0.80;;;;;;;16.99;100.00;100669.94;5053198;28;20221;-74
2022/11/01 11:35:12;;;;;;;2.40;1.10;;;;;;;16.96;100.00;100673.50;5055086;28;20942;-77
2022/11/01 11:37:39;;;;;;;3.50;1.00;;;;;;;16.92;100.00;100674.47;5048308;28;20267;-76